createdAt,value
2022-11-25T00:01:48.090Z,99758.38
2022-11-25T00:04:19.448Z,99740.97
2022-11-25T00:06:59.761Z,99744.41
2022-11-25T00:09:36.759Z,99744.41
2022-11-25T00:12:07.529Z,99733.97
2022-11-25T00:14:37.820Z,99730.44
2022-11-25T00:17:20.582Z,99724.34
2022-11-25T00:19:59.417Z,99719.13
2022-11-25T00:22:32.046Z,99728.69
2022-11-25T00:25:03.657Z,99718.25
2022-11-25T00:27:36.792Z,99725.22
2022-11-25T00:30:26.326Z,99719.13
2022-11-25T00:32:55.621Z,99709.56
2022-11-25T00:35:24.515Z,99717.41
2022-11-25T00:38:04.282Z,99711.38
2022-11-25T00:40:39.394Z,99713.97
2022-11-25T00:43:28.688Z,99723.53
2022-11-25T00:45:59.324Z,99714.84
2022-11-25T00:48:34.808Z,99715.69
2022-11-25T00:51:10.328Z,99707.91
2022-11-25T00:53:57.438Z,99712.31
2022-11-25T00:56:30.736Z,99709.69
2022-11-25T00:59:03.679Z,99715.78
2022-11-25T01:01:38.339Z,99717.53
2022-11-25T01:04:12.513Z,99707.97
2022-11-25T01:06:42.041Z,99711.44
2022-11-25T01:09:19.424Z,99708.84
2022-11-25T01:11:51.250Z,99715.78
2022-11-25T01:14:25.977Z,99710.56
2022-11-25T01:16:58.624Z,99712.31
2022-11-25T01:19:31.862Z,99714.03
2022-11-25T01:22:01.814Z,99711.44
2022-11-25T01:24:35.130Z,99713.22
2022-11-25T01:27:11.966Z,99711.44
2022-11-25T01:29:43.052Z,99714.06
2022-11-25T01:32:14.291Z,99718.44
2022-11-25T01:34:43.055Z,99709.78
2022-11-25T01:37:18.205Z,99714.13
2022-11-25T01:39:57.852Z,99715.06
2022-11-25T01:42:36.646Z,99714.28
2022-11-25T01:45:50.147Z,99701.31
2022-11-25T01:48:30.304Z,99709.19
2022-11-25T01:51:03.566Z,99707.50
2022-11-25T01:53:36.512Z,99715.38
2022-11-25T01:56:11.381Z,99710.25
2022-11-25T01:58:42.975Z,99708.56
2022-11-25T02:01:18.488Z,99711.25
2022-11-25T02:03:52.497Z,99706.97
2022-11-25T02:06:29.577Z,99705.25
2022-11-25T02:09:04.997Z,99712.28
2022-11-25T02:11:45.342Z,99704.44
2022-11-25T02:14:15.903Z,99704.53
2022-11-25T02:16:54.099Z,99708.94
2022-11-25T02:19:31.036Z,99705.47
2022-11-25T02:22:05.626Z,99698.56
2022-11-25T02:24:45.353Z,99689.88
2022-11-25T02:27:19.213Z,99686.47
2022-11-25T02:29:55.212Z,99686.53
2022-11-25T02:32:26.153Z,99681.31
2022-11-25T02:35:02.608Z,99681.41
2022-11-25T02:37:32.605Z,99683.19
2022-11-25T02:40:02.704Z,99686.72
2022-11-25T02:42:36.832Z,99679.78
2022-11-25T02:45:09.519Z,99678.13
2022-11-25T02:47:42.394Z,99673.81
2022-11-25T02:50:16.435Z,99672.16
2022-11-25T02:52:45.363Z,99675.69
2022-11-25T02:55:21.422Z,99673.94
2022-11-25T02:57:55.669Z,99687.94
2022-11-25T03:00:25.316Z,99681.91
2022-11-25T03:02:56.611Z,99675.81
2022-11-25T03:05:31.586Z,99675.88
2022-11-25T03:08:08.884Z,99687.28
2022-11-25T03:10:43.085Z,99694.28
2022-11-25T03:13:15.193Z,99696.91
2022-11-25T03:15:47.231Z,99696.97
2022-11-25T03:18:16.932Z,99694.38
2022-11-25T03:20:53.136Z,99698.78
2022-11-25T03:23:28.409Z,99701.41
2022-11-25T03:26:06.799Z,99698.84
2022-11-25T03:28:51.304Z,99692.75
2022-11-25T03:31:20.831Z,99694.47
2022-11-25T03:34:00.960Z,99698.03
2022-11-25T03:36:30.444Z,99706.72
2022-11-25T03:39:39.560Z,99703.25
2022-11-25T03:42:16.449Z,99712.03
2022-11-25T03:44:48.663Z,99711.16
2022-11-25T03:47:27.838Z,99713.78
2022-11-25T03:50:00.988Z,99715.59
2022-11-25T03:52:31.100Z,99713.88
2022-11-25T03:55:00.574Z,99719.13
2022-11-25T03:57:37.875Z,99725.22
2022-11-25T04:00:29.354Z,99727.00
2022-11-25T04:03:11.319Z,99723.53
2022-11-25T04:05:51.271Z,99728.81
2022-11-25T04:08:20.141Z,99726.22
2022-11-25T04:10:55.439Z,99738.47
2022-11-25T04:13:37.249Z,99735.00
2022-11-25T04:16:22.573Z,99737.59
2022-11-25T04:19:23.460Z,99742.00
2022-11-25T04:22:30.024Z,99742.88
2022-11-25T04:25:00.953Z,99746.31
2022-11-25T04:27:31.479Z,99744.56
2022-11-25T04:30:04.226Z,99743.69
2022-11-25T04:32:47.253Z,99748.91
2022-11-25T04:35:30.353Z,99745.34
2022-11-25T04:37:59.867Z,99761.03
2022-11-25T04:40:42.875Z,99748.81
2022-11-25T04:43:20.536Z,99759.28
2022-11-25T04:46:14.323Z,99752.25
2022-11-25T04:48:53.367Z,99758.34
2022-11-25T04:54:19.325Z,99771.34
2022-11-25T04:56:56.519Z,99766.09
2022-11-25T04:59:50.862Z,99758.22
2022-11-25T05:02:45.010Z,99766.91
2022-11-25T05:05:30.983Z,99769.53
2022-11-25T05:08:13.659Z,99767.78
2022-11-25T05:10:58.394Z,99768.59
2022-11-25T05:13:28.693Z,99776.44
2022-11-25T05:16:03.425Z,99786.00
2022-11-25T05:21:40.164Z,99779.84
2022-11-25T05:24:12.731Z,99785.94
2022-11-25T05:26:49.608Z,99790.28
2022-11-25T05:29:22.804Z,99791.09
2022-11-25T05:31:56.177Z,99791.94
2022-11-25T05:34:28.420Z,99798.84
2022-11-25T05:36:59.787Z,99792.69
2022-11-25T05:39:33.309Z,99801.38
2022-11-25T05:42:20.722Z,99800.44
2022-11-25T05:44:51.080Z,99804.72
2022-11-25T05:47:21.734Z,99804.72
2022-11-25T05:49:51.316Z,99809.00
2022-11-25T05:52:32.889Z,99807.19
2022-11-25T05:55:03.674Z,99812.41
2022-11-25T05:57:33.440Z,99813.19
2022-11-25T06:00:10.359Z,99810.53
2022-11-25T06:02:55.247Z,99814.00
2022-11-25T06:05:25.735Z,99817.44
2022-11-25T06:07:58.265Z,99820.88
2022-11-25T06:10:28.618Z,99821.69
2022-11-25T06:13:07.699Z,99826.03
2022-11-25T06:15:46.393Z,99827.69
2022-11-25T06:18:19.554Z,99824.22
2022-11-25T06:21:00.016Z,99832.84
2022-11-25T06:23:40.483Z,99840.66
2022-11-25T06:26:17.595Z,99839.72
2022-11-25T06:28:53.972Z,99845.78
2022-11-25T06:31:25.685Z,99843.13
2022-11-25T06:34:09.256Z,99852.69
2022-11-25T06:36:42.915Z,99856.13
2022-11-25T06:39:13.993Z,99863.06
2022-11-25T06:42:02.408Z,99858.72
2022-11-25T06:44:47.194Z,99865.63
2022-11-25T06:47:26.785Z,99862.97
2022-11-25T06:50:13.396Z,99872.50
2022-11-25T06:52:56.934Z,99868.13
2022-11-25T06:55:48.729Z,99869.00
2022-11-25T06:58:36.112Z,99879.44
2022-11-25T07:04:21.304Z,99882.84
2022-11-25T07:06:51.631Z,99892.41
2022-11-25T07:09:24.939Z,99895.88
2022-11-25T07:11:58.390Z,99900.19
2022-11-25T07:14:29.788Z,99900.19
2022-11-25T07:17:11.948Z,99905.41
2022-11-25T07:19:47.071Z,99912.41
2022-11-25T07:22:41.574Z,99914.94
2022-11-25T07:25:14.321Z,99926.25
2022-11-25T07:28:13.959Z,99921.03
2022-11-25T07:34:14.257Z,99927.13
2022-11-25T07:37:04.460Z,99930.56
2022-11-25T07:39:49.431Z,99927.03
2022-11-25T07:43:07.456Z,99933.97
2022-11-25T07:45:43.073Z,99939.13
2022-11-25T07:48:14.663Z,99953.91
2022-11-25T07:50:50.701Z,99962.53
2022-11-25T07:53:31.790Z,99963.38
2022-11-25T07:56:04.874Z,99969.50
2022-11-25T07:58:46.091Z,99963.38
2022-11-25T08:01:21.661Z,99965.16
2022-11-25T08:03:55.720Z,99973.88
2022-11-25T08:06:27.974Z,99979.13
2022-11-25T08:08:59.121Z,99979.19
2022-11-25T08:11:37.162Z,99983.63
2022-11-25T08:14:13.398Z,99991.47
2022-11-25T08:16:44.265Z,99983.78
2022-11-25T08:19:25.879Z,99989.91
2022-11-25T08:21:58.193Z,99990.84
2022-11-25T08:24:32.367Z,99991.84
2022-11-25T08:27:06.525Z,99999.72
2022-11-25T08:29:38.322Z,100006.72
2022-11-25T08:32:12.130Z,100005.94
2022-11-25T08:34:44.599Z,100019.00
2022-11-25T08:37:29.348Z,100027.78
2022-11-25T08:40:03.533Z,100027.78
2022-11-25T08:42:37.605Z,100031.34
2022-11-25T08:45:11.167Z,100039.22
2022-11-25T08:47:54.293Z,100030.47
2022-11-25T08:50:38.485Z,100031.44
2022-11-25T08:53:13.139Z,100033.22
2022-11-25T08:58:40.223Z,100041.06
2022-11-25T09:01:25.481Z,100034.97
2022-11-25T09:04:05.457Z,100030.63
2022-11-25T09:06:46.022Z,100036.78
2022-11-25T09:09:16.216Z,100035.06
2022-11-25T09:12:08.133Z,100043.84
2022-11-25T09:14:46.109Z,100052.56
2022-11-25T09:17:49.422Z,100050.94
2022-11-25T09:20:34.800Z,100057.13
2022-11-25T09:23:16.616Z,100062.44
2022-11-25T09:26:33.384Z,100066.88
2022-11-25T09:29:05.245Z,100067.88
2022-11-25T09:31:54.524Z,100070.56
2022-11-25T09:34:26.354Z,100067.19
2022-11-25T09:37:23.542Z,100082.16
2022-11-25T09:39:59.618Z,100077.16
2022-11-25T09:43:05.935Z,100082.56
2022-11-25T09:48:59.985Z,100088.22
2022-11-25T09:52:03.445Z,100085.75
2022-11-25T09:55:09.876Z,100099.00
2022-11-25T09:58:24.089Z,100101.75
2022-11-25T10:01:57.923Z,100104.44
2022-11-25T10:04:43.463Z,100100.25
2022-11-25T10:07:36.951Z,100110.81
2022-11-25T10:10:48.168Z,100113.53
2022-11-25T10:13:43.380Z,100114.53
2022-11-25T10:17:00.303Z,100125.16
2022-11-25T10:20:19.725Z,100123.50
2022-11-25T10:26:23.837Z,100128.13
2022-11-25T10:29:16.787Z,100137.88
2022-11-25T10:31:48.589Z,100134.50
2022-11-25T10:34:31.824Z,100137.28
2022-11-25T10:37:29.828Z,100134.81
2022-11-25T10:40:24.240Z,100139.28
2022-11-25T10:43:35.309Z,100136.81
2022-11-25T10:46:38.007Z,100144.72
2022-11-25T10:50:00.132Z,100145.69
2022-11-25T10:52:57.910Z,100145.88
2022-11-25T10:55:33.495Z,100148.63
2022-11-25T10:58:31.202Z,100158.38
2022-11-25T11:01:09.712Z,100160.25
2022-11-25T11:04:05.873Z,100159.44
2022-11-25T11:10:28.687Z,100162.16
2022-11-25T11:13:23.968Z,100169.19
2022-11-25T11:15:59.138Z,100169.19
2022-11-25T11:18:32.779Z,100167.50
2022-11-25T11:21:46.074Z,100167.59
2022-11-25T11:24:50.630Z,100170.28
2022-11-25T11:27:55.392Z,100165.97
2022-11-25T11:31:14.717Z,100164.31
2022-11-25T11:34:09.029Z,100172.28
2022-11-25T11:37:22.842Z,100170.66
2022-11-25T11:40:30.035Z,100183.84
2022-11-25T11:46:32.700Z,100180.47
2022-11-25T11:49:30.902Z,100183.16
2022-11-25T11:52:23.976Z,100181.50
2022-11-25T11:55:24.145Z,100185.00
2022-11-25T11:58:28.644Z,100187.59
2022-11-25T12:08:01.744Z,100200.81
2022-11-25T12:10:42.370Z,100205.25
2022-11-25T12:13:39.502Z,100203.53
2022-11-25T12:16:30.781Z,100208.88
2022-11-25T12:19:30.460Z,100209.81
2022-11-25T12:22:38.697Z,100214.19
2022-11-25T12:25:24.910Z,100215.94
2022-11-25T12:31:25.156Z,100229.09
2022-11-25T12:34:35.326Z,100231.75
2022-11-25T12:37:42.989Z,100231.84
2022-11-25T12:40:24.253Z,100230.22
2022-11-25T12:43:34.307Z,100239.91
2022-11-25T12:46:34.923Z,100243.47
2022-11-25T12:49:29.869Z,100241.75
2022-11-25T12:52:44.107Z,100241.78
2022-11-25T12:55:33.558Z,100253.28
2022-11-25T12:58:48.457Z,100251.66
2022-11-25T13:02:30.651Z,100268.31
2022-11-25T13:06:01.599Z,100268.44
2022-11-25T13:09:03.158Z,100266.69
2022-11-25T13:12:10.647Z,100270.19
2022-11-25T13:15:35.705Z,100271.09
2022-11-25T13:18:27.288Z,100292.97
2022-11-25T13:21:24.451Z,100278.91
2022-11-25T13:24:07.710Z,100288.53
2022-11-25T13:26:56.833Z,100288.53
2022-11-25T13:30:48.598Z,100314.63
2022-11-25T13:34:08.905Z,100303.25
2022-11-25T13:36:57.903Z,100312.94
2022-11-25T13:43:06.600Z,100307.75
2022-11-25T13:45:54.321Z,100318.28
2022-11-25T13:52:07.868Z,100326.34
2022-11-25T13:54:51.262Z,100324.69
2022-11-25T13:57:38.301Z,100337.00
2022-11-25T14:00:36.234Z,100329.19
2022-11-25T14:03:51.117Z,100332.81
2022-11-25T14:06:42.521Z,100338.13
2022-11-25T14:09:46.788Z,100337.38
2022-11-25T14:12:43.350Z,100340.94
2022-11-25T14:16:05.322Z,100342.69
2022-11-25T14:22:31.719Z,100360.09
2022-11-25T14:25:42.216Z,100355.63
2022-11-25T14:28:26.977Z,100364.28
2022-11-25T14:31:05.637Z,100364.16
2022-11-25T14:34:02.502Z,100363.16
2022-11-25T14:36:42.510Z,100370.06
2022-11-25T14:39:21.335Z,100377.88
2022-11-25T14:42:04.495Z,100374.34
2022-11-25T14:44:52.643Z,100379.59
2022-11-25T14:47:28.810Z,100376.06
2022-11-25T14:50:32.859Z,100386.53
2022-11-25T14:53:15.842Z,100384.72
2022-11-25T14:55:52.151Z,100393.44
2022-11-25T14:58:27.534Z,100392.50
2022-11-25T15:01:13.686Z,100388.13
2022-11-25T15:03:51.923Z,100399.41
2022-11-25T15:06:23.779Z,100397.69
2022-11-25T15:09:02.639Z,100403.66
2022-11-25T15:11:34.957Z,100408.91
2022-11-25T15:14:28.103Z,100411.50
2022-11-25T15:17:25.406Z,100413.19
2022-11-25T15:20:02.855Z,100408.75
2022-11-25T15:22:49.668Z,100413.13
2022-11-25T15:25:30.125Z,100429.72
2022-11-25T15:28:22.413Z,100433.13
2022-11-25T15:31:04.460Z,100430.44
2022-11-25T15:33:37.105Z,100439.19
2022-11-25T15:36:16.221Z,100437.34
2022-11-25T15:39:15.882Z,100441.69
2022-11-25T15:41:50.328Z,100452.97
2022-11-25T15:44:23.293Z,100452.06
2022-11-25T15:47:09.727Z,100456.34
2022-11-25T15:49:45.182Z,100469.41
2022-11-25T15:52:22.842Z,100480.72
2022-11-25T15:54:54.058Z,100488.50
2022-11-25T15:57:37.147Z,100489.25
2022-11-25T16:00:26.275Z,100519.75
2022-11-25T16:03:09.403Z,100492.59
2022-11-25T16:05:45.007Z,100508.22
2022-11-25T16:08:43.081Z,100498.59
2022-11-25T16:11:23.960Z,100508.13
2022-11-25T16:14:26.534Z,100500.22
2022-11-25T16:17:00.862Z,100505.44
2022-11-25T16:19:45.763Z,100508.88
2022-11-25T16:22:23.231Z,100511.47
2022-11-25T16:24:58.925Z,100511.41
2022-11-25T16:27:33.391Z,100510.44
2022-11-25T16:30:12.578Z,100524.41
2022-11-25T16:32:43.279Z,100527.84
2022-11-25T16:35:21.139Z,100525.19
2022-11-25T16:38:01.403Z,100528.63
2022-11-25T16:40:31.020Z,100546.09
2022-11-25T16:43:06.814Z,100540.78
2022-11-25T16:45:46.953Z,100545.13
2022-11-25T16:48:21.697Z,100552.03
2022-11-25T16:50:55.587Z,100565.13
2022-11-25T16:53:30.618Z,100553.75
2022-11-25T16:56:02.942Z,100567.66
2022-11-25T16:58:35.151Z,100578.13
2022-11-25T17:01:05.795Z,100574.56
2022-11-25T17:03:37.551Z,100582.44
2022-11-25T17:06:21.367Z,100592.88
2022-11-25T17:09:06.287Z,100591.13
2022-11-25T17:11:46.803Z,100597.22
2022-11-25T17:14:25.165Z,100591.91
2022-11-25T17:17:03.559Z,100601.50
2022-11-25T17:19:39.837Z,100597.09
2022-11-25T17:22:23.274Z,100610.09
2022-11-25T17:25:03.785Z,100624.13
2022-11-25T17:27:49.812Z,100656.38
2022-11-25T17:30:25.443Z,100622.28
2022-11-25T17:33:03.331Z,100623.09
2022-11-25T17:35:43.551Z,100628.31
2022-11-25T17:38:18.743Z,100642.22
2022-11-25T17:40:54.017Z,100645.69
2022-11-25T17:43:31.674Z,100653.47
2022-11-25T17:46:15.378Z,100652.59
2022-11-25T17:48:49.029Z,100662.19
2022-11-25T17:51:24.124Z,100668.28
2022-11-25T17:54:05.858Z,100675.19
2022-11-25T17:56:47.802Z,100678.66
2022-11-25T17:59:32.328Z,100695.16
2022-11-25T18:02:22.081Z,100683.78
2022-11-25T18:05:18.342Z,100684.56
2022-11-25T18:08:04.068Z,100698.44
2022-11-25T18:10:41.937Z,100704.38
2022-11-25T18:13:19.451Z,100707.00
2022-11-25T18:15:58.114Z,100713.97
2022-11-25T18:18:35.056Z,100714.75
2022-11-25T18:21:11.002Z,100719.09
2022-11-25T18:23:46.834Z,100723.31
2022-11-25T18:26:27.823Z,100726.59
2022-11-25T18:29:08.465Z,100731.81
2022-11-25T18:31:42.766Z,100754.41
2022-11-25T18:34:21.598Z,100734.94
2022-11-25T18:36:53.271Z,100747.69
2022-11-25T18:39:26.283Z,100751.84
2022-11-25T18:42:02.941Z,100756.81
2022-11-25T18:44:36.893Z,100767.03
2022-11-25T18:47:18.049Z,100765.00
2022-11-25T18:49:53.813Z,100764.75
2022-11-25T18:52:26.129Z,100760.16
2022-11-25T18:54:58.699Z,100773.06
2022-11-25T18:57:32.432Z,100779.88
2022-11-25T19:02:59.273Z,100786.56
2022-11-25T19:05:39.290Z,100792.56
2022-11-25T19:08:14.867Z,100793.31
2022-11-25T19:10:50.837Z,100795.81
2022-11-25T19:13:38.475Z,100796.66
2022-11-25T19:16:21.184Z,100800.03
2022-11-25T19:18:59.291Z,100811.38
2022-11-25T19:21:34.585Z,100810.28
2022-11-25T19:24:24.863Z,100817.16
2022-11-25T19:27:02.564Z,100824.94
2022-11-25T19:29:42.031Z,100823.06
2022-11-25T19:32:32.125Z,100825.56
2022-11-25T19:35:12.534Z,100828.84
2022-11-25T19:37:49.657Z,100840.91
2022-11-25T19:40:22.961Z,100844.28
2022-11-25T19:43:01.880Z,100847.56
2022-11-25T19:45:35.013Z,100854.44
2022-11-25T19:48:12.669Z,100862.16
2022-11-25T19:51:02.815Z,100859.50
2022-11-25T19:53:43.289Z,100861.94
2022-11-25T19:56:19.005Z,100869.72
2022-11-25T19:58:51.261Z,100873.97
2022-11-25T20:01:35.138Z,100872.13
2022-11-25T20:04:24.575Z,100878.19
2022-11-25T20:06:56.128Z,100877.25
2022-11-25T20:09:33.412Z,100890.41
2022-11-25T20:12:22.662Z,100878.22
2022-11-25T20:14:54.421Z,100887.03
2022-11-25T20:17:28.733Z,100888.75
2022-11-25T20:20:05.170Z,100892.25
2022-11-25T20:22:38.838Z,100902.72
2022-11-25T20:25:11.096Z,100911.38
2022-11-25T20:27:41.861Z,100914.78
2022-11-25T20:30:27.448Z,100914.00
2022-11-25T20:33:02.116Z,100927.03
2022-11-25T20:35:39.431Z,100932.28
2022-11-25T20:38:18.316Z,100922.72
2022-11-25T20:40:55.839Z,100927.03
2022-11-25T20:43:31.726Z,100934.03
2022-11-25T20:46:03.782Z,100940.91
2022-11-25T20:48:40.144Z,100953.91
2022-11-25T20:51:19.910Z,100947.03
2022-11-25T20:53:54.782Z,100946.13
2022-11-25T20:56:32.379Z,100956.56
2022-11-25T20:59:01.561Z,100945.25
2022-11-25T21:01:33.278Z,100950.47
2022-11-25T21:04:17.520Z,100953.00
2022-11-25T21:06:56.499Z,100954.63
2022-11-25T21:09:41.780Z,100970.16
2022-11-25T21:12:19.659Z,100963.97
2022-11-25T21:14:58.228Z,100971.66
2022-11-25T21:17:32.942Z,100970.56
2022-11-25T21:20:04.997Z,100973.03
2022-11-25T21:25:24.996Z,100982.00
2022-11-25T21:28:07.006Z,100995.69
2022-11-25T21:30:36.049Z,101006.75
2022-11-25T21:33:11.076Z,101003.06
2022-11-25T21:35:44.963Z,101025.22
2022-11-25T21:38:23.985Z,101003.22
2022-11-25T21:40:59.624Z,101000.41
2022-11-25T21:43:34.616Z,101010.59
2022-11-25T21:46:09.737Z,101015.44
2022-11-25T21:48:42.491Z,101015.16
2022-11-25T21:51:15.585Z,101023.56
2022-11-25T21:53:48.050Z,101031.94
2022-11-25T21:56:23.578Z,101026.44
2022-11-25T21:59:04.118Z,101029.69
2022-11-25T22:01:35.041Z,101036.38
2022-11-25T22:04:04.663Z,101037.84
2022-11-25T22:06:41.169Z,101039.31
2022-11-25T22:09:16.403Z,101037.19
2022-11-25T22:11:53.053Z,101043.88
2022-11-25T22:14:34.563Z,101047.16
2022-11-25T22:17:14.253Z,101046.81
2022-11-25T22:19:49.859Z,101055.25
2022-11-25T22:22:26.608Z,101063.75
2022-11-25T22:24:57.783Z,101065.25
2022-11-25T22:27:37.324Z,101071.75
2022-11-25T22:30:19.907Z,101065.50
2022-11-25T22:33:03.726Z,101066.97
2022-11-25T22:35:32.699Z,101073.69
2022-11-25T22:38:24.548Z,101070.81
2022-11-25T22:41:10.171Z,101071.38
2022-11-25T22:43:49.114Z,101076.28
2022-11-25T22:46:23.102Z,101077.72
2022-11-25T22:48:54.729Z,101082.66
2022-11-25T22:51:31.049Z,101093.69
2022-11-25T22:54:11.204Z,101095.13
2022-11-25T22:56:41.735Z,101096.59
2022-11-25T22:59:20.969Z,101108.53
2022-11-25T23:02:00.718Z,101115.25
2022-11-25T23:04:36.726Z,101118.47
2022-11-25T23:07:15.312Z,101113.97
2022-11-25T23:09:59.078Z,101118.13
2022-11-25T23:12:32.250Z,101118.03
2022-11-25T23:15:05.315Z,101122.16
2022-11-25T23:17:41.683Z,101123.88
2022-11-25T23:20:18.305Z,101123.78
2022-11-25T23:22:52.263Z,101130.78
2022-11-25T23:25:27.000Z,101130.59
2022-11-25T23:27:56.722Z,101132.28
2022-11-25T23:30:28.991Z,101132.28
2022-11-25T23:32:59.360Z,101140.91
2022-11-25T23:35:38.318Z,101142.63
2022-11-25T23:38:22.598Z,101144.31
2022-11-25T23:40:59.746Z,101144.31
2022-11-25T23:43:37.458Z,101149.50
2022-11-25T23:46:14.388Z,101153.81
2022-11-25T23:48:56.032Z,101152.03
2022-11-25T23:51:35.398Z,101153.81
2022-11-25T23:54:20.883Z,101162.44
2022-11-25T23:56:51.818Z,101161.50
2022-11-25T23:59:30.766Z,101164.03
